TimeCDT,TemperatureF,Dew PointF,Humidity,Sea Level PressureIn,VisibilityMPH,Wind Direction,Wind SpeedMPH,Gust SpeedMPH,PrecipitationIn,Events,Conditions,WindDirDegrees,DateUTC
12:52 AM,36.0,33.1,89,29.85,4.0,WNW,15.0,-,N/A,,Overcast,290,2013-04-11 05:52:00
1:52 AM,36.0,32.0,86,29.85,7.0,West,15.0,-,N/A,,Overcast,280,2013-04-11 06:52:00
2:32 AM,35.6,32.0,87,29.82,9.0,WNW,13.8,21.9,N/A,,Overcast,290,2013-04-11 07:32:00
2:52 AM,35.1,32.0,89,29.80,8.0,WNW,15.0,-,N/A,,Overcast,290,2013-04-11 07:52:00
3:28 AM,35.6,30.2,81,29.78,10.0,WNW,13.8,-,N/A,,Overcast,290,2013-04-11 08:28:00
3:52 AM,35.1,30.0,82,29.79,10.0,WNW,15.0,-,N/A,,Overcast,300,2013-04-11 08:52:00
4:52 AM,35.1,30.0,82,29.79,10.0,WNW,10.4,-,N/A,,Overcast,290,2013-04-11 09:52:00
5:52 AM,35.1,28.9,78,29.80,10.0,West,10.4,-,N/A,,Overcast,270,2013-04-11 10:52:00
6:52 AM,35.1,28.9,78,29.79,10.0,WNW,9.2,-,N/A,,Overcast,290,2013-04-11 11:52:00
7:52 AM,34.0,28.0,79,29.81,10.0,West,12.7,-,N/A,,Overcast,280,2013-04-11 12:52:00
8:07 AM,33.8,28.4,81,29.80,10.0,WNW,12.7,-,N/A,,Overcast,290,2013-04-11 13:07:00
8:30 AM,33.8,28.4,81,29.80,10.0,WSW,13.8,-,N/A,,Overcast,250,2013-04-11 13:30:00
8:52 AM,34.0,28.0,79,29.81,10.0,West,12.7,-,N/A,,Overcast,260,2013-04-11 13:52:00
10:52 AM,35.1,26.1,70,29.80,10.0,West,13.8,-,N/A,,Overcast,280,2013-04-11 15:52:00
11:52 AM,37.0,27.0,67,29.80,10.0,West,12.7,-,N/A,,Overcast,280,2013-04-11 16:52:00
12:15 PM,37.4,26.6,65,29.78,10.0,West,10.4,19.6,N/A,,Overcast,260,2013-04-11 17:15:00
12:52 PM,39.0,27.0,62,29.79,10.0,West,16.1,24.2,N/A,,Overcast,270,2013-04-11 17:52:00
1:52 PM,39.9,27.0,60,29.78,10.0,WNW,15.0,-,N/A,,Overcast,290,2013-04-11 18:52:00
2:52 PM,41.0,28.0,60,29.77,10.0,WNW,12.7,-,N/A,,Overcast,290,2013-04-11 19:52:00
3:52 PM,42.1,28.0,58,29.75,10.0,WNW,15.0,-,N/A,,Overcast,290,2013-04-11 20:52:00
4:52 PM,42.1,28.0,58,29.75,10.0,WNW,13.8,20.7,N/A,,Overcast,300,2013-04-11 21:52:00
5:52 PM,41.0,27.0,57,29.76,10.0,WNW,15.0,23.0,N/A,,Overcast,290,2013-04-11 22:52:00
6:52 PM,39.9,28.0,63,29.77,10.0,WNW,11.5,-,N/A,,Overcast,300,2013-04-11 23:52:00
7:52 PM,39.9,27.0,60,29.78,10.0,WNW,10.4,-,N/A,,Overcast,300,2013-04-12 00:52:00
8:52 PM,39.0,27.0,62,29.79,10.0,WNW,6.9,-,N/A,,Overcast,290,2013-04-12 01:52:00
9:52 PM,39.0,27.0,62,29.81,10.0,West,10.4,-,N/A,,Overcast,280,2013-04-12 02:52:00
10:52 PM,39.0,26.1,60,29.81,10.0,WNW,11.5,-,N/A,,Overcast,290,2013-04-12 03:52:00
11:52 PM,36.0,26.1,67,29.81,10.0,WNW,6.9,-,N/A,,Scattered Clouds,290,2013-04-12 04:52:00